sensor_id;sensor_type;location;lat;lon;timestamp;P1;durP1;ratioP1;P2;durP2;ratioP2
64297;SDS011;50639;53.270;7.956;2024-02-15T00:01:39;17.85;;;13.55;;
64297;SDS011;50639;53.270;7.956;2024-02-15T00:04:04;20.25;;;12.80;;
64297;SDS011;50639;53.270;7.956;2024-02-15T00:06:31;19.75;;;13.68;;
64297;SDS011;50639;53.270;7.956;2024-02-15T00:08:56;20.15;;;13.40;;
64297;SDS011;50639;53.270;7.956;2024-02-15T00:11:22;19.92;;;14.55;;
64297;SDS011;50639;53.270;7.956;2024-02-15T00:13:47;18.40;;;14.18;;
64297;SDS011;50639;53.270;7.956;2024-02-15T00:16:13;23.88;;;15.00;;
64297;SDS011;50639;53.270;7.956;2024-02-15T00:18:42;20.73;;;14.75;;
64297;SDS011;50639;53.270;7.956;2024-02-15T00:21:08;22.23;;;15.38;;
64297;SDS011;50639;53.270;7.956;2024-02-15T00:23:33;21.58;;;14.82;;
64297;SDS011;50639;53.270;7.956;2024-02-15T00:25:58;19.88;;;15.00;;
64297;SDS011;50639;53.270;7.956;2024-02-15T00:28:24;23.90;;;16.10;;
64297;SDS011;50639;53.270;7.956;2024-02-15T00:30:51;22.60;;;14.57;;
64297;SDS011;50639;53.270;7.956;2024-02-15T00:33:17;21.85;;;15.05;;
64297;SDS011;50639;53.270;7.956;2024-02-15T00:35:43;25.45;;;15.63;;
64297;SDS011;50639;53.270;7.956;2024-02-15T00:38:08;25.90;;;15.25;;
64297;SDS011;50639;53.270;7.956;2024-02-15T00:40:33;27.63;;;17.65;;
64297;SDS011;50639;53.270;7.956;2024-02-15T00:42:59;26.52;;;15.80;;
64297;SDS011;50639;53.270;7.956;2024-02-15T00:45:25;24.17;;;14.52;;
64297;SDS011;50639;53.270;7.956;2024-02-15T00:47:50;23.60;;;15.15;;
64297;SDS011;50639;53.270;7.956;2024-02-15T00:50:16;23.45;;;15.10;;
64297;SDS011;50639;53.270;7.956;2024-02-15T00:52:41;23.58;;;15.60;;
64297;SDS011;50639;53.270;7.956;2024-02-15T00:55:07;24.10;;;15.63;;
64297;SDS011;50639;53.270;7.956;2024-02-15T00:57:33;24.42;;;15.88;;
64297;SDS011;50639;53.270;7.956;2024-02-15T00:59:58;20.73;;;15.77;;
64297;SDS011;50639;53.270;7.956;2024-02-15T01:02:25;26.00;;;16.47;;
64297;SDS011;50639;53.270;7.956;2024-02-15T01:04:50;24.08;;;15.85;;
64297;SDS011;50639;53.270;7.956;2024-02-15T01:09:43;21.75;;;15.30;;
64297;SDS011;50639;53.270;7.956;2024-02-15T01:12:10;24.67;;;16.45;;
64297;SDS011;50639;53.270;7.956;2024-02-15T01:14:35;26.02;;;16.80;;
64297;SDS011;50639;53.270;7.956;2024-02-15T01:17:01;26.45;;;17.52;;
64297;SDS011;50639;53.270;7.956;2024-02-15T01:19:27;25.02;;;15.57;;
64297;SDS011;50639;53.270;7.956;2024-02-15T01:21:52;26.33;;;15.15;;
64297;SDS011;50639;53.270;7.956;2024-02-15T01:24:18;29.75;;;17.83;;
64297;SDS011;50639;53.270;7.956;2024-02-15T01:26:47;25.80;;;15.50;;
64297;SDS011;50639;53.270;7.956;2024-02-15T01:29:14;25.15;;;16.90;;
64297;SDS011;50639;53.270;7.956;2024-02-15T01:31:40;29.05;;;16.70;;
64297;SDS011;50639;53.270;7.956;2024-02-15T01:34:05;22.85;;;14.48;;
64297;SDS011;50639;53.270;7.956;2024-02-15T01:36:30;27.45;;;17.25;;
64297;SDS011;50639;53.270;7.956;2024-02-15T01:38:56;31.73;;;18.70;;
64297;SDS011;50639;53.270;7.956;2024-02-15T01:41:21;33.55;;;16.30;;
64297;SDS011;50639;53.270;7.956;2024-02-15T01:43:47;30.35;;;16.75;;
64297;SDS011;50639;53.270;7.956;2024-02-15T01:46:13;30.13;;;19.45;;
64297;SDS011;50639;53.270;7.956;2024-02-15T01:48:40;34.03;;;19.73;;
64297;SDS011;50639;53.270;7.956;2024-02-15T01:51:07;28.17;;;17.20;;
64297;SDS011;50639;53.270;7.956;2024-02-15T01:53:35;32.25;;;18.63;;
64297;SDS011;50639;53.270;7.956;2024-02-15T01:56:00;27.05;;;15.95;;
64297;SDS011;50639;53.270;7.956;2024-02-15T01:58:26;30.35;;;16.45;;
64297;SDS011;50639;53.270;7.956;2024-02-15T02:00:54;31.08;;;18.48;;
64297;SDS011;50639;53.270;7.956;2024-02-15T02:03:21;30.67;;;19.30;;
64297;SDS011;50639;53.270;7.956;2024-02-15T02:05:47;29.52;;;18.27;;
64297;SDS011;50639;53.270;7.956;2024-02-15T02:08:12;35.83;;;19.95;;
64297;SDS011;50639;53.270;7.956;2024-02-15T02:10:38;31.90;;;19.45;;
64297;SDS011;50639;53.270;7.956;2024-02-15T02:13:04;29.35;;;18.20;;
64297;SDS011;50639;53.270;7.956;2024-02-15T02:15:33;35.10;;;19.75;;
64297;SDS011;50639;53.270;7.956;2024-02-15T02:18:02;31.10;;;18.20;;
64297;SDS011;50639;53.270;7.956;2024-02-15T02:20:31;30.92;;;18.58;;
64297;SDS011;50639;53.270;7.956;2024-02-15T02:23:03;32.45;;;18.23;;
64297;SDS011;50639;53.270;7.956;2024-02-15T02:25:32;29.98;;;18.95;;
64297;SDS011;50639;53.270;7.956;2024-02-15T02:27:59;37.90;;;19.23;;
64297;SDS011;50639;53.270;7.956;2024-02-15T02:30:25;32.08;;;19.52;;
64297;SDS011;50639;53.270;7.956;2024-02-15T02:32:55;32.20;;;18.48;;
64297;SDS011;50639;53.270;7.956;2024-02-15T02:35:22;31.40;;;18.77;;
64297;SDS011;50639;53.270;7.956;2024-02-15T02:37:47;36.15;;;21.40;;
64297;SDS011;50639;53.270;7.956;2024-02-15T02:40:13;30.70;;;20.10;;
64297;SDS011;50639;53.270;7.956;2024-02-15T02:42:46;35.15;;;20.65;;
64297;SDS011;50639;53.270;7.956;2024-02-15T02:45:16;34.45;;;19.95;;
64297;SDS011;50639;53.270;7.956;2024-02-15T02:47:44;41.28;;;22.88;;
64297;SDS011;50639;53.270;7.956;2024-02-15T02:50:16;40.85;;;22.63;;
64297;SDS011;50639;53.270;7.956;2024-02-15T02:52:42;32.55;;;20.60;;
64297;SDS011;50639;53.270;7.956;2024-02-15T02:55:09;36.03;;;18.83;;
64297;SDS011;50639;53.270;7.956;2024-02-15T02:57:38;29.90;;;18.38;;
64297;SDS011;50639;53.270;7.956;2024-02-15T03:00:04;38.55;;;19.15;;
64297;SDS011;50639;53.270;7.956;2024-02-15T03:02:33;26.17;;;15.68;;
64297;SDS011;50639;53.270;7.956;2024-02-15T03:07:27;38.00;;;18.17;;
64297;SDS011;50639;53.270;7.956;2024-02-15T03:09:53;35.13;;;18.23;;
64297;SDS011;50639;53.270;7.956;2024-02-15T03:12:18;28.80;;;18.27;;
64297;SDS011;50639;53.270;7.956;2024-02-15T03:14:44;31.95;;;18.00;;
64297;SDS011;50639;53.270;7.956;2024-02-15T03:17:10;31.87;;;17.43;;
64297;SDS011;50639;53.270;7.956;2024-02-15T03:19:36;31.55;;;17.35;;
64297;SDS011;50639;53.270;7.956;2024-02-15T03:22:01;28.23;;;17.25;;
64297;SDS011;50639;53.270;7.956;2024-02-15T03:24:27;25.65;;;15.15;;
64297;SDS011;50639;53.270;7.956;2024-02-15T03:26:52;27.08;;;15.75;;
64297;SDS011;50639;53.270;7.956;2024-02-15T03:29:20;23.98;;;14.65;;
64297;SDS011;50639;53.270;7.956;2024-02-15T03:31:46;25.92;;;14.02;;
64297;SDS011;50639;53.270;7.956;2024-02-15T03:34:12;24.35;;;15.38;;
64297;SDS011;50639;53.270;7.956;2024-02-15T03:36:39;22.55;;;14.38;;
64297;SDS011;50639;53.270;7.956;2024-02-15T03:39:05;22.55;;;15.05;;
64297;SDS011;50639;53.270;7.956;2024-02-15T03:41:31;28.38;;;15.25;;
64297;SDS011;50639;53.270;7.956;2024-02-15T03:43:58;19.33;;;13.50;;
64297;SDS011;50639;53.270;7.956;2024-02-15T03:46:25;24.02;;;13.63;;
64297;SDS011;50639;53.270;7.956;2024-02-15T03:48:50;20.70;;;13.18;;
64297;SDS011;50639;53.270;7.956;2024-02-15T03:51:16;19.73;;;12.35;;
64297;SDS011;50639;53.270;7.956;2024-02-15T03:53:43;20.67;;;12.98;;
64297;SDS011;50639;53.270;7.956;2024-02-15T03:56:09;22.45;;;13.63;;
64297;SDS011;50639;53.270;7.956;2024-02-15T03:58:34;22.27;;;13.52;;
64297;SDS011;50639;53.270;7.956;2024-02-15T04:01:01;24.50;;;14.55;;
64297;SDS011;50639;53.270;7.956;2024-02-15T04:03:31;19.25;;;13.13;;
64297;SDS011;50639;53.270;7.956;2024-02-15T04:05:57;18.65;;;12.45;;
64297;SDS011;50639;53.270;7.956;2024-02-15T04:08:23;23.95;;;14.50;;
64297;SDS011;50639;53.270;7.956;2024-02-15T04:10:48;19.70;;;12.07;;
64297;SDS011;50639;53.270;7.956;2024-02-15T04:13:14;16.85;;;11.40;;
64297;SDS011;50639;53.270;7.956;2024-02-15T04:15:40;21.00;;;12.55;;
64297;SDS011;50639;53.270;7.956;2024-02-15T04:18:06;17.15;;;12.73;;
64297;SDS011;50639;53.270;7.956;2024-02-15T04:20:33;25.83;;;13.87;;
64297;SDS011;50639;53.270;7.956;2024-02-15T04:22:59;21.90;;;13.60;;
64297;SDS011;50639;53.270;7.956;2024-02-15T04:25:24;23.13;;;12.55;;
64297;SDS011;50639;53.270;7.956;2024-02-15T04:27:53;22.58;;;14.40;;
64297;SDS011;50639;53.270;7.956;2024-02-15T04:30:18;23.95;;;13.07;;
64297;SDS011;50639;53.270;7.956;2024-02-15T04:32:45;16.43;;;11.63;;
64297;SDS011;50639;53.270;7.956;2024-02-15T04:35:12;26.38;;;14.70;;
64297;SDS011;50639;53.270;7.956;2024-02-15T04:37:37;21.48;;;13.55;;
64297;SDS011;50639;53.270;7.956;2024-02-15T04:40:03;24.42;;;14.32;;
64297;SDS011;50639;53.270;7.956;2024-02-15T04:42:35;22.45;;;13.73;;
64297;SDS011;50639;53.270;7.956;2024-02-15T04:45:05;22.42;;;13.48;;
64297;SDS011;50639;53.270;7.956;2024-02-15T04:47:37;19.55;;;12.40;;
64297;SDS011;50639;53.270;7.956;2024-02-15T04:50:03;24.13;;;14.20;;
64297;SDS011;50639;53.270;7.956;2024-02-15T04:52:31;22.92;;;13.35;;
64297;SDS011;50639;53.270;7.956;2024-02-15T04:54:56;26.65;;;14.38;;
64297;SDS011;50639;53.270;7.956;2024-02-15T04:57:26;20.83;;;12.38;;
64297;SDS011;50639;53.270;7.956;2024-02-15T04:59:55;25.77;;;14.32;;
64297;SDS011;50639;53.270;7.956;2024-02-15T05:02:21;28.52;;;14.63;;
64297;SDS011;50639;53.270;7.956;2024-02-15T05:04:49;21.65;;;13.50;;
64297;SDS011;50639;53.270;7.956;2024-02-15T05:07:20;31.33;;;15.95;;
64297;SDS011;50639;53.270;7.956;2024-02-15T05:09:47;26.08;;;13.63;;
64297;SDS011;50639;53.270;7.956;2024-02-15T05:12:21;24.52;;;14.98;;
64297;SDS011;50639;53.270;7.956;2024-02-15T05:14:48;23.98;;;14.68;;
64297;SDS011;50639;53.270;7.956;2024-02-15T05:17:13;19.70;;;12.88;;
64297;SDS011;50639;53.270;7.956;2024-02-15T05:19:39;22.52;;;14.55;;
64297;SDS011;50639;53.270;7.956;2024-02-15T05:22:04;26.13;;;14.50;;
64297;SDS011;50639;53.270;7.956;2024-02-15T05:24:32;22.50;;;13.90;;
64297;SDS011;50639;53.270;7.956;2024-02-15T05:26:59;26.83;;;14.82;;
64297;SDS011;50639;53.270;7.956;2024-02-15T05:29:24;21.50;;;12.70;;
64297;SDS011;50639;53.270;7.956;2024-02-15T05:31:50;20.50;;;11.95;;
64297;SDS011;50639;53.270;7.956;2024-02-15T05:34:17;18.25;;;12.93;;
64297;SDS011;50639;53.270;7.956;2024-02-15T05:36:42;19.48;;;12.38;;
64297;SDS011;50639;53.270;7.956;2024-02-15T05:39:08;19.98;;;13.98;;
64297;SDS011;50639;53.270;7.956;2024-02-15T05:41:36;22.88;;;11.40;;
64297;SDS011;50639;53.270;7.956;2024-02-15T05:44:02;28.80;;;14.15;;
64297;SDS011;50639;53.270;7.956;2024-02-15T05:46:31;32.08;;;17.05;;
64297;SDS011;50639;53.270;7.956;2024-02-15T05:48:57;31.42;;;17.20;;
64297;SDS011;50639;53.270;7.956;2024-02-15T05:51:22;25.73;;;15.63;;
64297;SDS011;50639;53.270;7.956;2024-02-15T05:53:49;29.23;;;13.80;;
64297;SDS011;50639;53.270;7.956;2024-02-15T05:56:14;27.45;;;17.42;;
64297;SDS011;50639;53.270;7.956;2024-02-15T05:58:40;22.50;;;15.98;;
64297;SDS011;50639;53.270;7.956;2024-02-15T06:01:05;33.10;;;19.80;;
64297;SDS011;50639;53.270;7.956;2024-02-15T06:03:32;30.25;;;20.48;;
64297;SDS011;50639;53.270;7.956;2024-02-15T06:06:03;24.38;;;17.35;;
64297;SDS011;50639;53.270;7.956;2024-02-15T06:08:35;24.15;;;17.60;;
64297;SDS011;50639;53.270;7.956;2024-02-15T06:11:01;31.08;;;19.75;;
64297;SDS011;50639;53.270;7.956;2024-02-15T06:13:27;25.35;;;17.40;;
64297;SDS011;50639;53.270;7.956;2024-02-15T06:15:53;24.30;;;18.05;;
64297;SDS011;50639;53.270;7.956;2024-02-15T06:18:19;28.05;;;17.80;;
64297;SDS011;50639;53.270;7.956;2024-02-15T06:20:54;24.92;;;15.77;;
64297;SDS011;50639;53.270;7.956;2024-02-15T06:23:22;22.48;;;15.32;;
64297;SDS011;50639;53.270;7.956;2024-02-15T06:25:50;25.20;;;16.98;;
64297;SDS011;50639;53.270;7.956;2024-02-15T06:28:18;25.23;;;17.13;;
64297;SDS011;50639;53.270;7.956;2024-02-15T06:31:02;29.15;;;19.73;;
64297;SDS011;50639;53.270;7.956;2024-02-15T06:33:46;30.80;;;21.00;;
64297;SDS011;50639;53.270;7.956;2024-02-15T06:36:30;28.15;;;22.98;;
64297;SDS011;50639;53.270;7.956;2024-02-15T06:39:14;31.67;;;19.30;;
64297;SDS011;50639;53.270;7.956;2024-02-15T06:41:58;29.58;;;18.90;;
64297;SDS011;50639;53.270;7.956;2024-02-15T06:44:23;29.52;;;19.00;;
64297;SDS011;50639;53.270;7.956;2024-02-15T06:46:49;34.78;;;19.67;;
64297;SDS011;50639;53.270;7.956;2024-02-15T06:49:15;34.40;;;20.15;;
64297;SDS011;50639;53.270;7.956;2024-02-15T06:51:41;25.55;;;19.27;;
64297;SDS011;50639;53.270;7.956;2024-02-15T06:54:07;34.22;;;21.08;;
64297;SDS011;50639;53.270;7.956;2024-02-15T06:56:36;29.17;;;21.08;;
64297;SDS011;50639;53.270;7.956;2024-02-15T06:59:02;36.25;;;23.13;;
64297;SDS011;50639;53.270;7.956;2024-02-15T07:01:28;40.05;;;21.50;;
64297;SDS011;50639;53.270;7.956;2024-02-15T07:03:53;39.60;;;22.42;;
64297;SDS011;50639;53.270;7.956;2024-02-15T07:06:20;33.17;;;19.98;;
64297;SDS011;50639;53.270;7.956;2024-02-15T07:08:46;30.58;;;21.83;;
64297;SDS011;50639;53.270;7.956;2024-02-15T07:11:13;31.23;;;20.25;;
64297;SDS011;50639;53.270;7.956;2024-02-15T07:13:38;29.42;;;21.88;;
64297;SDS011;50639;53.270;7.956;2024-02-15T07:16:07;32.42;;;20.80;;
64297;SDS011;50639;53.270;7.956;2024-02-15T07:18:33;37.45;;;24.48;;
64297;SDS011;50639;53.270;7.956;2024-02-15T07:20:58;35.75;;;23.27;;
64297;SDS011;50639;53.270;7.956;2024-02-15T07:23:26;39.42;;;23.58;;
64297;SDS011;50639;53.270;7.956;2024-02-15T07:25:52;25.23;;;18.20;;
64297;SDS011;50639;53.270;7.956;2024-02-15T07:28:19;33.40;;;23.35;;
64297;SDS011;50639;53.270;7.956;2024-02-15T07:30:46;30.70;;;20.85;;
64297;SDS011;50639;53.270;7.956;2024-02-15T07:33:14;26.85;;;18.67;;
64297;SDS011;50639;53.270;7.956;2024-02-15T07:35:43;30.15;;;21.05;;
64297;SDS011;50639;53.270;7.956;2024-02-15T07:38:11;35.42;;;24.95;;
64297;SDS011;50639;53.270;7.956;2024-02-15T07:40:36;35.83;;;24.30;;
64297;SDS011;50639;53.270;7.956;2024-02-15T07:43:05;34.70;;;23.27;;
64297;SDS011;50639;53.270;7.956;2024-02-15T07:45:31;28.45;;;22.45;;
64297;SDS011;50639;53.270;7.956;2024-02-15T07:48:01;33.05;;;21.88;;
64297;SDS011;50639;53.270;7.956;2024-02-15T07:50:29;30.85;;;21.58;;
64297;SDS011;50639;53.270;7.956;2024-02-15T07:52:55;34.63;;;24.15;;
64297;SDS011;50639;53.270;7.956;2024-02-15T07:55:21;30.88;;;22.63;;
64297;SDS011;50639;53.270;7.956;2024-02-15T07:57:47;31.27;;;22.75;;
64297;SDS011;50639;53.270;7.956;2024-02-15T08:00:13;35.75;;;23.70;;
64297;SDS011;50639;53.270;7.956;2024-02-15T08:02:42;32.05;;;23.13;;
64297;SDS011;50639;53.270;7.956;2024-02-15T08:05:09;29.95;;;22.50;;
64297;SDS011;50639;53.270;7.956;2024-02-15T08:07:37;32.25;;;24.25;;
64297;SDS011;50639;53.270;7.956;2024-02-15T08:10:04;29.67;;;22.48;;
64297;SDS011;50639;53.270;7.956;2024-02-15T08:12:33;30.95;;;23.35;;
64297;SDS011;50639;53.270;7.956;2024-02-15T08:14:58;29.75;;;23.27;;
64297;SDS011;50639;53.270;7.956;2024-02-15T08:17:23;33.88;;;24.17;;
64297;SDS011;50639;53.270;7.956;2024-02-15T08:19:50;33.53;;;23.38;;
64297;SDS011;50639;53.270;7.956;2024-02-15T08:22:16;30.80;;;23.00;;
64297;SDS011;50639;53.270;7.956;2024-02-15T08:24:41;35.45;;;24.80;;
64297;SDS011;50639;53.270;7.956;2024-02-15T08:27:08;27.80;;;21.17;;
64297;SDS011;50639;53.270;7.956;2024-02-15T08:29:35;27.95;;;22.42;;
64297;SDS011;50639;53.270;7.956;2024-02-15T08:32:01;37.15;;;26.42;;
64297;SDS011;50639;53.270;7.956;2024-02-15T08:34:26;34.85;;;24.25;;
64297;SDS011;50639;53.270;7.956;2024-02-15T08:36:51;28.67;;;20.83;;
64297;SDS011;50639;53.270;7.956;2024-02-15T08:39:17;30.20;;;23.02;;
64297;SDS011;50639;53.270;7.956;2024-02-15T08:41:42;29.98;;;23.02;;
64297;SDS011;50639;53.270;7.956;2024-02-15T08:44:08;30.23;;;22.23;;
64297;SDS011;50639;53.270;7.956;2024-02-15T08:46:37;30.95;;;22.02;;
64297;SDS011;50639;53.270;7.956;2024-02-15T08:49:02;25.10;;;19.98;;
64297;SDS011;50639;53.270;7.956;2024-02-15T08:51:28;33.10;;;23.30;;
64297;SDS011;50639;53.270;7.956;2024-02-15T08:53:55;29.77;;;20.63;;
64297;SDS011;50639;53.270;7.956;2024-02-15T08:56:21;36.97;;;23.25;;
64297;SDS011;50639;53.270;7.956;2024-02-15T08:58:48;28.83;;;20.13;;
64297;SDS011;50639;53.270;7.956;2024-02-15T09:01:13;28.20;;;20.73;;
64297;SDS011;50639;53.270;7.956;2024-02-15T09:03:39;26.50;;;18.30;;
64297;SDS011;50639;53.270;7.956;2024-02-15T09:06:04;29.05;;;18.55;;
64297;SDS011;50639;53.270;7.956;2024-02-15T09:08:30;31.45;;;18.42;;
64297;SDS011;50639;53.270;7.956;2024-02-15T09:10:55;30.55;;;18.27;;
64297;SDS011;50639;53.270;7.956;2024-02-15T09:13:23;27.52;;;18.40;;
64297;SDS011;50639;53.270;7.956;2024-02-15T09:15:48;32.45;;;20.05;;
64297;SDS011;50639;53.270;7.956;2024-02-15T09:18:15;29.93;;;17.43;;
64297;SDS011;50639;53.270;7.956;2024-02-15T09:20:43;27.27;;;17.20;;
64297;SDS011;50639;53.270;7.956;2024-02-15T09:23:10;29.30;;;18.45;;
64297;SDS011;50639;53.270;7.956;2024-02-15T09:25:40;26.33;;;16.48;;
64297;SDS011;50639;53.270;7.956;2024-02-15T09:28:09;28.88;;;17.88;;
64297;SDS011;50639;53.270;7.956;2024-02-15T09:30:35;28.20;;;17.75;;
64297;SDS011;50639;53.270;7.956;2024-02-15T09:33:01;20.52;;;15.02;;
64297;SDS011;50639;53.270;7.956;2024-02-15T09:35:30;26.77;;;15.95;;
64297;SDS011;50639;53.270;7.956;2024-02-15T09:37:56;24.95;;;15.15;;
64297;SDS011;50639;53.270;7.956;2024-02-15T09:40:22;21.38;;;14.23;;
64297;SDS011;50639;53.270;7.956;2024-02-15T09:42:51;25.52;;;12.93;;
64297;SDS011;50639;53.270;7.956;2024-02-15T09:45:17;24.88;;;17.40;;
64297;SDS011;50639;53.270;7.956;2024-02-15T09:47:43;24.60;;;16.90;;
64297;SDS011;50639;53.270;7.956;2024-02-15T09:50:10;26.23;;;15.50;;
64297;SDS011;50639;53.270;7.956;2024-02-15T09:52:39;22.33;;;14.02;;
64297;SDS011;50639;53.270;7.956;2024-02-15T09:55:08;20.63;;;13.43;;
64297;SDS011;50639;53.270;7.956;2024-02-15T09:57:38;23.20;;;14.95;;
64297;SDS011;50639;53.270;7.956;2024-02-15T10:00:04;21.92;;;12.02;;
64297;SDS011;50639;53.270;7.956;2024-02-15T10:02:33;20.25;;;12.38;;
64297;SDS011;50639;53.270;7.956;2024-02-15T10:05:01;15.80;;;11.23;;
64297;SDS011;50639;53.270;7.956;2024-02-15T10:07:27;17.27;;;10.45;;
64297;SDS011;50639;53.270;7.956;2024-02-15T10:09:53;17.42;;;11.90;;
64297;SDS011;50639;53.270;7.956;2024-02-15T10:12:18;21.70;;;13.52;;
64297;SDS011;50639;53.270;7.956;2024-02-15T10:14:49;16.67;;;11.45;;
64297;SDS011;50639;53.270;7.956;2024-02-15T10:17:17;19.13;;;11.77;;
64297;SDS011;50639;53.270;7.956;2024-02-15T10:19:44;17.90;;;10.80;;
64297;SDS011;50639;53.270;7.956;2024-02-15T10:22:10;14.52;;;9.88;;
64297;SDS011;50639;53.270;7.956;2024-02-15T10:24:37;11.73;;;8.70;;
64297;SDS011;50639;53.270;7.956;2024-02-15T10:27:04;12.23;;;8.68;;
64297;SDS011;50639;53.270;7.956;2024-02-15T10:29:35;11.32;;;7.97;;
64297;SDS011;50639;53.270;7.956;2024-02-15T10:32:03;13.00;;;8.88;;
64297;SDS011;50639;53.270;7.956;2024-02-15T10:34:29;19.80;;;9.85;;
64297;SDS011;50639;53.270;7.956;2024-02-15T10:37:29;13.43;;;8.90;;
64297;SDS011;50639;53.270;7.956;2024-02-15T10:40:09;14.90;;;9.60;;
64297;SDS011;50639;53.270;7.956;2024-02-15T10:42:35;17.58;;;11.70;;
64297;SDS011;50639;53.270;7.956;2024-02-15T10:45:04;19.15;;;11.00;;
64297;SDS011;50639;53.270;7.956;2024-02-15T10:47:33;18.00;;;11.43;;
64297;SDS011;50639;53.270;7.956;2024-02-15T10:50:02;16.88;;;10.27;;
64297;SDS011;50639;53.270;7.956;2024-02-15T10:52:30;19.20;;;11.13;;
64297;SDS011;50639;53.270;7.956;2024-02-15T10:55:01;15.32;;;10.77;;
64297;SDS011;50639;53.270;7.956;2024-02-15T10:57:30;12.05;;;9.25;;
64297;SDS011;50639;53.270;7.956;2024-02-15T10:59:58;15.98;;;9.13;;
64297;SDS011;50639;53.270;7.956;2024-02-15T11:02:49;18.92;;;9.93;;
64297;SDS011;50639;53.270;7.956;2024-02-15T11:05:19;16.92;;;9.90;;
64297;SDS011;50639;53.270;7.956;2024-02-15T11:07:46;16.30;;;10.83;;
64297;SDS011;50639;53.270;7.956;2024-02-15T11:10:11;18.58;;;8.88;;
64297;SDS011;50639;53.270;7.956;2024-02-15T11:12:42;13.48;;;8.73;;
64297;SDS011;50639;53.270;7.956;2024-02-15T11:15:08;20.10;;;10.73;;
64297;SDS011;50639;53.270;7.956;2024-02-15T11:17:55;13.10;;;9.40;;
64297;SDS011;50639;53.270;7.956;2024-02-15T11:25:32;13.88;;;8.57;;
64297;SDS011;50639;53.270;7.956;2024-02-15T11:30:48;14.18;;;8.35;;
64297;SDS011;50639;53.270;7.956;2024-02-15T11:33:29;16.73;;;7.53;;
64297;SDS011;50639;53.270;7.956;2024-02-15T11:36:09;13.77;;;8.25;;
64297;SDS011;50639;53.270;7.956;2024-02-15T11:38:36;14.57;;;8.32;;
64297;SDS011;50639;53.270;7.956;2024-02-15T11:41:06;12.48;;;7.88;;
64297;SDS011;50639;53.270;7.956;2024-02-15T11:46:16;15.85;;;8.35;;
64297;SDS011;50639;53.270;7.956;2024-02-15T11:48:44;13.35;;;7.47;;
64297;SDS011;50639;53.270;7.956;2024-02-15T11:51:28;9.45;;;6.72;;
64297;SDS011;50639;53.270;7.956;2024-02-15T11:56:31;14.25;;;7.43;;
64297;SDS011;50639;53.270;7.956;2024-02-15T11:59:19;12.30;;;7.63;;
64297;SDS011;50639;53.270;7.956;2024-02-15T12:01:57;13.07;;;6.18;;
64297;SDS011;50639;53.270;7.956;2024-02-15T12:04:42;10.48;;;6.50;;
64297;SDS011;50639;53.270;7.956;2024-02-15T12:07:27;13.52;;;6.95;;
64297;SDS011;50639;53.270;7.956;2024-02-15T12:10:15;10.10;;;6.20;;
64297;SDS011;50639;53.270;7.956;2024-02-15T12:13:00;9.35;;;6.25;;
64297;SDS011;50639;53.270;7.956;2024-02-15T12:16:06;11.05;;;5.63;;
64297;SDS011;50639;53.270;7.956;2024-02-15T12:18:49;8.10;;;4.85;;
64297;SDS011;50639;53.270;7.956;2024-02-15T12:21:19;9.63;;;5.32;;
64297;SDS011;50639;53.270;7.956;2024-02-15T12:23:48;9.90;;;5.50;;
64297;SDS011;50639;53.270;7.956;2024-02-15T12:26:24;8.10;;;5.30;;
64297;SDS011;50639;53.270;7.956;2024-02-15T12:28:52;10.00;;;5.55;;
64297;SDS011;50639;53.270;7.956;2024-02-15T12:31:20;10.10;;;5.38;;
64297;SDS011;50639;53.270;7.956;2024-02-15T12:33:46;8.75;;;4.63;;
64297;SDS011;50639;53.270;7.956;2024-02-15T12:36:13;12.88;;;5.30;;
64297;SDS011;50639;53.270;7.956;2024-02-15T12:38:39;7.45;;;4.90;;
64297;SDS011;50639;53.270;7.956;2024-02-15T12:43:51;9.05;;;5.05;;
64297;SDS011;50639;53.270;7.956;2024-02-15T12:46:18;7.93;;;4.72;;
64297;SDS011;50639;53.270;7.956;2024-02-15T12:48:44;7.38;;;4.90;;
64297;SDS011;50639;53.270;7.956;2024-02-15T12:51:13;7.32;;;4.32;;
64297;SDS011;50639;53.270;7.956;2024-02-15T12:53:40;5.70;;;3.78;;
64297;SDS011;50639;53.270;7.956;2024-02-15T12:56:07;7.22;;;4.15;;
64297;SDS011;50639;53.270;7.956;2024-02-15T12:58:34;6.40;;;4.13;;
64297;SDS011;50639;53.270;7.956;2024-02-15T13:01:00;9.13;;;4.50;;
64297;SDS011;50639;53.270;7.956;2024-02-15T13:03:26;6.78;;;4.20;;
64297;SDS011;50639;53.270;7.956;2024-02-15T13:05:52;6.75;;;4.25;;
64297;SDS011;50639;53.270;7.956;2024-02-15T13:08:18;6.43;;;3.97;;
64297;SDS011;50639;53.270;7.956;2024-02-15T13:10:45;6.47;;;3.83;;
64297;SDS011;50639;53.270;7.956;2024-02-15T13:13:11;10.02;;;4.30;;
64297;SDS011;50639;53.270;7.956;2024-02-15T13:15:39;9.18;;;4.50;;
64297;SDS011;50639;53.270;7.956;2024-02-15T13:18:05;6.55;;;3.83;;
64297;SDS011;50639;53.270;7.956;2024-02-15T13:20:34;5.78;;;3.88;;
64297;SDS011;50639;53.270;7.956;2024-02-15T13:23:03;6.03;;;3.88;;
64297;SDS011;50639;53.270;7.956;2024-02-15T13:28:08;8.20;;;3.92;;
64297;SDS011;50639;53.270;7.956;2024-02-15T13:30:35;6.28;;;3.80;;
64297;SDS011;50639;53.270;7.956;2024-02-15T13:33:01;3.80;;;2.90;;
64297;SDS011;50639;53.270;7.956;2024-02-15T13:35:27;4.55;;;2.83;;
64297;SDS011;50639;53.270;7.956;2024-02-15T13:37:54;8.27;;;3.00;;
64297;SDS011;50639;53.270;7.956;2024-02-15T13:40:23;7.75;;;3.03;;
64297;SDS011;50639;53.270;7.956;2024-02-15T13:42:56;4.22;;;2.60;;
64297;SDS011;50639;53.270;7.956;2024-02-15T13:45:28;5.20;;;3.00;;
64297;SDS011;50639;53.270;7.956;2024-02-15T13:47:57;3.38;;;2.58;;
64297;SDS011;50639;53.270;7.956;2024-02-15T13:50:28;4.25;;;2.70;;
64297;SDS011;50639;53.270;7.956;2024-02-15T13:52:54;4.50;;;2.70;;
64297;SDS011;50639;53.270;7.956;2024-02-15T13:55:20;6.53;;;2.60;;
64297;SDS011;50639;53.270;7.956;2024-02-15T13:57:50;3.88;;;2.47;;
64297;SDS011;50639;53.270;7.956;2024-02-15T14:00:15;4.25;;;2.72;;
64297;SDS011;50639;53.270;7.956;2024-02-15T14:02:51;5.88;;;3.45;;
64297;SDS011;50639;53.270;7.956;2024-02-15T14:05:18;6.85;;;3.67;;
64297;SDS011;50639;53.270;7.956;2024-02-15T14:07:52;8.20;;;2.88;;
64297;SDS011;50639;53.270;7.956;2024-02-15T14:10:20;6.75;;;3.20;;
64297;SDS011;50639;53.270;7.956;2024-02-15T14:12:47;7.38;;;3.30;;
64297;SDS011;50639;53.270;7.956;2024-02-15T14:15:14;7.43;;;3.13;;
64297;SDS011;50639;53.270;7.956;2024-02-15T14:17:40;4.10;;;2.60;;
64297;SDS011;50639;53.270;7.956;2024-02-15T14:20:06;4.15;;;2.60;;
64297;SDS011;50639;53.270;7.956;2024-02-15T14:22:36;5.00;;;2.90;;
64297;SDS011;50639;53.270;7.956;2024-02-15T14:25:03;8.32;;;3.53;;
64297;SDS011;50639;53.270;7.956;2024-02-15T14:27:30;6.47;;;4.22;;
64297;SDS011;50639;53.270;7.956;2024-02-15T14:29:57;7.60;;;4.22;;
64297;SDS011;50639;53.270;7.956;2024-02-15T14:32:41;6.53;;;4.05;;
64297;SDS011;50639;53.270;7.956;2024-02-15T14:35:26;10.90;;;5.18;;
64297;SDS011;50639;53.270;7.956;2024-02-15T14:37:53;13.35;;;7.32;;
64297;SDS011;50639;53.270;7.956;2024-02-15T14:40:21;10.57;;;5.90;;
64297;SDS011;50639;53.270;7.956;2024-02-15T14:42:48;4.22;;;2.58;;
64297;SDS011;50639;53.270;7.956;2024-02-15T14:45:13;4.88;;;2.97;;
64297;SDS011;50639;53.270;7.956;2024-02-15T14:47:38;6.15;;;3.30;;
64297;SDS011;50639;53.270;7.956;2024-02-15T14:50:04;5.05;;;2.88;;
64297;SDS011;50639;53.270;7.956;2024-02-15T14:52:36;5.25;;;3.10;;
64297;SDS011;50639;53.270;7.956;2024-02-15T14:55:05;6.53;;;3.03;;